Time;durP1;ratioP1;P1;durP2;ratioP2;P2;SDS_P1;SDS_P2;PMS_P1;PMS_P2;Temp;Humidity;BMP_temperature;BMP_pressure;BME280_temperature;BME280_humidity;BME280_pressure;Samples;Min_cycle;Max_cycle;Signal;HPM_P1;HPM_P2
2023/12/20 00:00:22;;;;;;;108.40;48.57;;;;;;;;;;4398680;32;319216;-71
2023/12/20 00:02:49;;;;;;;104.80;46.50;;;;;;;;;;4411165;32;319235;-72
2023/12/20 00:05:15;;;;;;;98.83;47.83;;;;;;;;;;4402313;32;318727;-71
2023/12/20 00:07:42;;;;;;;89.13;43.37;;;;;;;;;;4412058;32;317644;-72
2023/12/20 00:10:10;;;;;;;87.90;44.73;;;;;;;;;;4401505;32;318400;-72
2023/12/20 00:12:36;;;;;;;99.77;46.17;;;;;;;;;;4409928;32;318600;-72
2023/12/20 00:15:06;;;;;;;89.57;45.83;;;;;;;;;;4412251;32;318593;-73
2023/12/20 00:17:32;;;;;;;97.73;44.90;;;;;;;;;;4399221;32;417761;-72
2023/12/20 00:19:59;;;;;;;105.10;47.13;;;;;;;;;;4412201;32;318511;-72
2023/12/20 00:22:26;;;;;;;96.33;43.43;;;;;;;;;;4398207;32;319417;-72
2023/12/20 00:24:53;;;;;;;86.70;44.80;;;;;;;;;;4410565;32;317589;-73
2023/12/20 00:27:20;;;;;;;73.53;39.73;;;;;;;;;;4402334;32;318383;-72
2023/12/20 00:29:49;;;;;;;81.50;40.17;;;;;;;;;;4412427;32;318335;-72
2023/12/20 00:32:18;;;;;;;84.60;39.20;;;;;;;;;;4401186;32;318451;-72
2023/12/20 00:34:45;;;;;;;75.93;37.17;;;;;;;;;;4414969;32;318290;-73
2023/12/20 00:37:12;;;;;;;97.03;39.60;;;;;;;;;;4405477;32;318423;-72
2023/12/20 00:39:39;;;;;;;91.63;39.10;;;;;;;;;;4415443;32;318421;-73
2023/12/20 00:42:06;;;;;;;87.53;39.63;;;;;;;;;;4414075;32;318411;-72
2023/12/20 00:44:33;;;;;;;84.07;41.83;;;;;;;;;;4399034;32;417451;-72
2023/12/20 00:47:00;;;;;;;103.27;44.27;;;;;;;;;;4415646;32;318440;-72
2023/12/20 00:49:29;;;;;;;96.60;43.93;;;;;;;;;;4405301;32;320043;-72
2023/12/20 00:51:56;;;;;;;102.77;43.83;;;;;;;;;;4415061;32;318535;-72
2023/12/20 00:54:23;;;;;;;87.10;43.70;;;;;;;;;;4403194;32;319596;-71
2023/12/20 00:56:49;;;;;;;99.13;44.27;;;;;;;;;;4414816;32;317862;-73
2023/12/20 00:59:17;;;;;;;95.90;43.97;;;;;;;;;;4404457;32;318070;-73
2023/12/20 01:01:44;;;;;;;78.87;38.03;;;;;;;;;;4414740;32;317994;-73
2023/12/20 01:04:11;;;;;;;101.97;45.70;;;;;;;;;;4403940;32;318484;-73
2023/12/20 01:06:39;;;;;;;90.80;41.43;;;;;;;;;;4411477;32;319556;-72
2023/12/20 01:09:06;;;;;;;112.10;47.13;;;;;;;;;;4405242;32;318363;-73
2023/12/20 01:11:33;;;;;;;95.53;46.27;;;;;;;;;;4413311;32;319469;-72
2023/12/20 01:14:00;;;;;;;97.37;45.17;;;;;;;;;;4413440;32;317629;-73
2023/12/20 01:16:27;;;;;;;96.70;43.83;;;;;;;;;;4400801;32;318788;-73
2023/12/20 01:18:54;;;;;;;95.00;47.50;;;;;;;;;;4414279;32;341109;-73
2023/12/20 01:21:20;;;;;;;110.37;44.43;;;;;;;;;;4404721;32;317517;-73
2023/12/20 01:23:49;;;;;;;118.40;40.70;;;;;;;;;;4414536;32;319665;-73
2023/12/20 01:26:16;;;;;;;103.13;42.87;;;;;;;;;;4404312;32;319530;-72
2023/12/20 01:28:43;;;;;;;91.70;37.37;;;;;;;;;;4413406;32;318616;-72
2023/12/20 01:31:10;;;;;;;84.50;38.90;;;;;;;;;;4403223;32;318501;-73
2023/12/20 01:33:37;;;;;;;97.33;42.83;;;;;;;;;;4413439;32;317538;-73
2023/12/20 01:36:04;;;;;;;84.47;40.70;;;;;;;;;;4413416;32;317919;-73
2023/12/20 01:38:32;;;;;;;92.97;44.97;;;;;;;;;;4398674;32;419175;-73
2023/12/20 01:41:00;;;;;;;98.57;46.73;;;;;;;;;;4414381;32;318170;-73
2023/12/20 01:43:27;;;;;;;94.77;43.53;;;;;;;;;;4403280;32;318054;-74
2023/12/20 01:45:54;;;;;;;87.23;41.07;;;;;;;;;;4414024;32;318287;-73
2023/12/20 01:48:21;;;;;;;88.57;42.10;;;;;;;;;;4400817;32;356017;-72
2023/12/20 01:50:49;;;;;;;84.50;41.20;;;;;;;;;;4412908;32;318204;-74
2023/12/20 01:53:16;;;;;;;77.93;39.47;;;;;;;;;;4404333;32;318495;-73
2023/12/20 01:55:45;;;;;;;98.50;42.73;;;;;;;;;;4414261;32;318307;-74
2023/12/20 01:58:14;;;;;;;95.60;42.60;;;;;;;;;;4404035;32;318550;-73
2023/12/20 02:00:41;;;;;;;81.87;42.37;;;;;;;;;;4410623;32;318508;-73
2023/12/20 02:03:08;;;;;;;84.03;43.43;;;;;;;;;;4403248;32;318347;-74
2023/12/20 02:05:36;;;;;;;82.57;37.53;;;;;;;;;;4412702;32;318322;-74
2023/12/20 02:08:04;;;;;;;86.87;37.53;;;;;;;;;;4414282;32;318359;-73
2023/12/20 02:10:31;;;;;;;86.57;40.63;;;;;;;;;;4401483;32;318439;-73
2023/12/20 02:12:58;;;;;;;76.87;34.13;;;;;;;;;;4413574;32;318312;-74
2023/12/20 02:15:26;;;;;;;77.17;37.13;;;;;;;;;;4401919;32;346165;-73
2023/12/20 02:17:53;;;;;;;80.50;35.33;;;;;;;;;;4412925;32;318324;-74
2023/12/20 02:20:20;;;;;;;104.43;37.03;;;;;;;;;;4401224;32;318220;-72
2023/12/20 02:22:48;;;;;;;76.63;36.77;;;;;;;;;;4412405;32;319468;-74
2023/12/20 02:25:15;;;;;;;88.40;37.37;;;;;;;;;;4402609;32;318304;-73
2023/12/20 02:27:43;;;;;;;70.57;35.83;;;;;;;;;;4413090;32;318003;-74
2023/12/20 02:30:11;;;;;;;74.43;35.83;;;;;;;;;;4402603;32;317683;-73
2023/12/20 02:32:38;;;;;;;79.40;36.77;;;;;;;;;;4411620;32;317861;-74
2023/12/20 02:35:05;;;;;;;90.33;37.50;;;;;;;;;;4413435;32;317681;-74
2023/12/20 02:37:33;;;;;;;79.20;34.60;;;;;;;;;;4399630;32;419305;-74
2023/12/20 02:40:02;;;;;;;89.20;34.10;;;;;;;;;;4411465;32;318127;-74
2023/12/20 02:42:29;;;;;;;80.17;33.77;;;;;;;;;;4401354;32;318199;-73
2023/12/20 02:44:56;;;;;;;67.97;32.90;;;;;;;;;;4412563;32;318379;-74
2023/12/20 02:47:23;;;;;;;74.73;35.00;;;;;;;;;;4402444;32;355428;-74
2023/12/20 02:49:50;;;;;;;83.20;35.37;;;;;;;;;;4413427;32;318342;-74
2023/12/20 02:52:17;;;;;;;86.67;35.73;;;;;;;;;;4403138;32;318153;-73
2023/12/20 02:54:44;;;;;;;71.07;36.53;;;;;;;;;;4412680;32;317810;-74
2023/12/20 02:57:13;;;;;;;70.50;33.67;;;;;;;;;;4402121;32;317799;-74
2023/12/20 02:59:39;;;;;;;75.57;35.23;;;;;;;;;;4413129;32;318279;-74
2023/12/20 03:02:06;;;;;;;75.83;33.70;;;;;;;;;;4403445;32;318550;-72
2023/12/20 03:04:33;;;;;;;72.90;31.97;;;;;;;;;;4410896;32;318450;-74
2023/12/20 03:07:00;;;;;;;72.43;32.27;;;;;;;;;;4411337;32;318112;-74
2023/12/20 03:09:27;;;;;;;68.63;30.87;;;;;;;;;;4401342;32;356370;-74
2023/12/20 03:11:54;;;;;;;65.83;33.17;;;;;;;;;;4412917;32;318377;-74
2023/12/20 03:14:22;;;;;;;70.60;33.10;;;;;;;;;;4402774;32;317482;-74
2023/12/20 03:16:50;;;;;;;77.20;32.03;;;;;;;;;;4410405;32;317682;-75
2023/12/20 03:19:18;;;;;;;78.27;35.63;;;;;;;;;;4402056;32;318465;-74
2023/12/20 03:21:45;;;;;;;75.50;32.53;;;;;;;;;;4411688;32;318243;-74
2023/12/20 03:24:12;;;;;;;63.27;31.80;;;;;;;;;;4400756;32;360253;-73
2023/12/20 03:26:39;;;;;;;62.77;30.17;;;;;;;;;;4410539;32;318192;-74
2023/12/20 03:29:06;;;;;;;75.17;34.70;;;;;;;;;;4412840;32;318340;-74
2023/12/20 03:31:34;;;;;;;70.20;30.33;;;;;;;;;;4399902;32;418927;-74
2023/12/20 03:34:00;;;;;;;63.83;31.47;;;;;;;;;;4412545;32;317811;-74
2023/12/20 03:36:27;;;;;;;71.70;31.63;;;;;;;;;;4400611;32;317650;-74
2023/12/20 03:38:54;;;;;;;69.43;31.77;;;;;;;;;;4411611;32;318563;-74
2023/12/20 03:41:21;;;;;;;66.67;30.73;;;;;;;;;;4400297;32;347075;-74
2023/12/20 03:43:48;;;;;;;71.07;32.17;;;;;;;;;;4412389;32;318241;-74
2023/12/20 03:46:14;;;;;;;67.30;31.93;;;;;;;;;;4402996;32;318338;-72
2023/12/20 03:48:43;;;;;;;67.40;32.67;;;;;;;;;;4409599;32;318186;-74
2023/12/20 03:51:09;;;;;;;60.87;31.17;;;;;;;;;;4401941;32;318227;-74
2023/12/20 03:53:36;;;;;;;66.47;31.93;;;;;;;;;;4411836;32;318529;-75
2023/12/20 03:56:03;;;;;;;74.67;33.50;;;;;;;;;;4411275;32;318640;-74
2023/12/20 03:58:30;;;;;;;88.83;32.90;;;;;;;;;;4398755;32;318762;-73
2023/12/20 04:00:57;;;;;;;63.70;30.53;;;;;;;;;;4411215;32;317748;-74
2023/12/20 04:03:24;;;;;;;73.40;32.73;;;;;;;;;;4400793;32;335998;-74
2023/12/20 04:05:52;;;;;;;67.87;32.17;;;;;;;;;;4412482;32;318398;-74
2023/12/20 04:08:19;;;;;;;61.30;31.93;;;;;;;;;;4399749;32;318183;-72
2023/12/20 04:10:46;;;;;;;71.60;33.37;;;;;;;;;;4413515;32;336987;-75
2023/12/20 04:13:13;;;;;;;60.27;30.70;;;;;;;;;;4405512;32;318240;-72
2023/12/20 04:15:39;;;;;;;76.77;35.20;;;;;;;;;;4415713;32;318434;-75
2023/12/20 04:18:06;;;;;;;72.47;32.07;;;;;;;;;;4411012;32;318351;-70
2023/12/20 04:20:33;;;;;;;72.73;31.80;;;;;;;;;;4411555;32;318417;-74
2023/12/20 04:23:01;;;;;;;66.50;32.03;;;;;;;;;;4414664;32;318410;-73
2023/12/20 04:25:28;;;;;;;65.40;31.43;;;;;;;;;;4404515;32;318320;-74
2023/12/20 04:27:55;;;;;;;63.13;30.97;;;;;;;;;;4414093;32;318300;-73
2023/12/20 04:30:22;;;;;;;68.27;31.77;;;;;;;;;;4402817;32;318680;-72
2023/12/20 04:32:49;;;;;;;59.23;30.00;;;;;;;;;;4414865;32;318106;-75
2023/12/20 04:35:15;;;;;;;78.80;33.87;;;;;;;;;;4404306;32;318562;-74
2023/12/20 04:37:42;;;;;;;67.83;32.70;;;;;;;;;;4415469;32;318241;-73
2023/12/20 04:40:11;;;;;;;73.93;34.03;;;;;;;;;;4404474;32;318432;-72
2023/12/20 04:42:38;;;;;;;104.33;43.43;;;;;;;;;;4411998;32;346537;-73
2023/12/20 04:45:06;;;;;;;105.13;49.27;;;;;;;;;;4415195;32;319416;-72
2023/12/20 04:47:32;;;;;;;90.67;44.07;;;;;;;;;;4402265;32;418846;-73
2023/12/20 04:49:59;;;;;;;114.97;46.70;;;;;;;;;;4413599;32;317636;-73
2023/12/20 04:52:26;;;;;;;114.05;47.20;;;;;;;;;;4401871;32;319785;-73
2023/12/20 04:54:53;;;;;;;114.37;48.53;;;;;;;;;;4413861;32;319158;-73
2023/12/20 04:57:21;;;;;;;105.80;47.80;;;;;;;;;;4403827;32;319511;-73
2023/12/20 04:59:48;;;;;;;108.57;47.33;;;;;;;;;;4414088;32;319813;-74
2023/12/20 05:02:15;;;;;;;108.53;47.93;;;;;;;;;;4403749;32;319397;-73
2023/12/20 05:04:42;;;;;;;89.90;40.83;;;;;;;;;;4411924;32;319480;-74
2023/12/20 05:07:09;;;;;;;89.10;41.53;;;;;;;;;;4402886;32;318481;-74
2023/12/20 05:09:36;;;;;;;85.40;37.93;;;;;;;;;;4414812;32;318066;-74
2023/12/20 05:12:04;;;;;;;107.67;46.23;;;;;;;;;;4413533;32;317561;-75
2023/12/20 05:14:32;;;;;;;103.07;47.03;;;;;;;;;;4402687;32;319310;-74
2023/12/20 05:16:59;;;;;;;94.87;44.93;;;;;;;;;;4414756;32;319393;-74
2023/12/20 05:19:26;;;;;;;109.93;46.05;;;;;;;;;;4404514;32;317974;-75
2023/12/20 05:21:53;;;;;;;100.13;45.83;;;;;;;;;;4414664;32;319542;-75
2023/12/20 05:24:20;;;;;;;116.47;51.07;;;;;;;;;;4402171;32;319554;-72
2023/12/20 05:26:47;;;;;;;112.53;53.47;;;;;;;;;;4414198;32;318626;-74
2023/12/20 05:29:13;;;;;;;129.20;55.33;;;;;;;;;;4403841;32;319474;-72
2023/12/20 05:31:41;;;;;;;126.47;52.50;;;;;;;;;;4413443;32;319409;-74
2023/12/20 05:34:08;;;;;;;113.13;49.20;;;;;;;;;;4403401;32;319298;-72
2023/12/20 05:36:36;;;;;;;125.60;50.13;;;;;;;;;;4410401;32;319549;-73
2023/12/20 05:39:03;;;;;;;119.60;52.03;;;;;;;;;;4414571;32;319366;-74
2023/12/20 05:41:30;;;;;;;109.57;50.23;;;;;;;;;;4402681;32;319605;-74
2023/12/20 05:43:57;;;;;;;100.80;45.37;;;;;;;;;;4413868;32;319255;-72
2023/12/20 05:46:24;;;;;;;91.33;45.73;;;;;;;;;;4399868;32;319749;-73
2023/12/20 05:48:53;;;;;;;78.07;39.10;;;;;;;;;;4412488;32;317524;-74
2023/12/20 05:51:19;;;;;;;72.70;36.27;;;;;;;;;;4403840;32;318410;-74
2023/12/20 05:53:46;;;;;;;64.10;31.43;;;;;;;;;;4413000;32;318231;-74
2023/12/20 05:56:13;;;;;;;64.97;35.47;;;;;;;;;;4401041;32;318278;-74
2023/12/20 05:58:40;;;;;;;66.77;34.40;;;;;;;;;;4409013;32;336182;-74
2023/12/20 06:01:08;;;;;;;75.20;38.10;;;;;;;;;;4411571;32;342085;-74
2023/12/20 06:03:35;;;;;;;82.03;35.73;;;;;;;;;;4403956;32;318510;-73
2023/12/20 06:06:07;;;;;;;78.77;35.40;;;;;;;;;;4413328;32;317804;-74
2023/12/20 06:08:34;;;;;;;67.07;32.97;;;;;;;;;;4400126;32;317569;-73
2023/12/20 06:11:01;;;;;;;65.67;32.60;;;;;;;;;;4413119;32;317529;-73
2023/12/20 06:13:28;;;;;;;63.57;33.23;;;;;;;;;;4403581;32;318355;-73
2023/12/20 06:15:56;;;;;;;69.40;36.00;;;;;;;;;;4413694;32;318146;-73
2023/12/20 06:18:26;;;;;;;75.67;34.80;;;;;;;;;;4400442;32;318367;-72
2023/12/20 06:20:53;;;;;;;74.17;37.03;;;;;;;;;;4411785;32;317574;-74
2023/12/20 06:23:21;;;;;;;83.87;42.53;;;;;;;;;;4402170;32;318320;-74
2023/12/20 06:25:48;;;;;;;95.83;43.27;;;;;;;;;;4413265;32;317693;-74
2023/12/20 06:28:15;;;;;;;87.23;40.50;;;;;;;;;;4401811;32;317724;-74
2023/12/20 06:30:42;;;;;;;73.13;37.33;;;;;;;;;;4409285;32;318089;-73
2023/12/20 06:33:09;;;;;;;84.13;39.03;;;;;;;;;;4412962;32;318508;-73
2023/12/20 06:35:36;;;;;;;83.10;39.77;;;;;;;;;;4398469;32;419279;-72
2023/12/20 06:38:03;;;;;;;81.60;41.10;;;;;;;;;;4412017;32;317694;-72
2023/12/20 06:40:32;;;;;;;82.23;38.87;;;;;;;;;;4399754;32;318154;-73
2023/12/20 06:42:59;;;;;;;59.67;32.23;;;;;;;;;;4412682;32;318282;-74
2023/12/20 06:45:26;;;;;;;60.00;32.80;;;;;;;;;;4402464;32;318211;-73
2023/12/20 06:47:54;;;;;;;65.50;35.60;;;;;;;;;;4413264;32;317576;-73
2023/12/20 06:50:21;;;;;;;78.03;38.20;;;;;;;;;;4400886;32;341569;-72
2023/12/20 06:52:48;;;;;;;132.17;84.00;;;;;;;;;;4410551;32;343632;-73
2023/12/20 06:55:15;;;;;;;74.47;39.63;;;;;;;;;;4403109;32;319933;-72
2023/12/20 06:57:43;;;;;;;83.50;42.57;;;;;;;;;;4412560;32;317502;-72
2023/12/20 07:00:12;;;;;;;83.53;41.50;;;;;;;;;;4413158;32;318500;-73
2023/12/20 07:02:39;;;;;;;84.20;41.20;;;;;;;;;;4397463;32;417620;-72
2023/12/20 07:05:06;;;;;;;80.30;37.73;;;;;;;;;;4410694;32;318240;-73
2023/12/20 07:07:33;;;;;;;87.37;42.57;;;;;;;;;;4401870;32;318429;-72
2023/12/20 07:10:00;;;;;;;89.37;39.63;;;;;;;;;;4411716;32;317490;-73
2023/12/20 07:12:27;;;;;;;68.63;36.00;;;;;;;;;;4397728;32;338972;-73
2023/12/20 07:14:55;;;;;;;99.50;49.17;;;;;;;;;;4412804;32;318190;-73
2023/12/20 07:17:22;;;;;;;92.60;46.77;;;;;;;;;;4402546;32;318530;-74
2023/12/20 07:19:49;;;;;;;87.40;41.60;;;;;;;;;;4411660;32;318365;-73
2023/12/20 07:22:16;;;;;;;59.20;30.97;;;;;;;;;;4401240;32;317691;-74
2023/12/20 07:24:43;;;;;;;56.77;30.40;;;;;;;;;;4410896;32;318277;-74
2023/12/20 07:27:10;;;;;;;64.00;33.33;;;;;;;;;;4412375;32;318211;-73
2023/12/20 07:29:36;;;;;;;74.37;36.50;;;;;;;;;;4399963;32;417331;-73
2023/12/20 07:32:05;;;;;;;84.33;42.77;;;;;;;;;;4411652;32;318738;-74
2023/12/20 07:34:32;;;;;;;77.17;42.77;;;;;;;;;;4398977;32;318276;-73
2023/12/20 07:36:59;;;;;;;81.77;41.93;;;;;;;;;;4411442;32;318430;-74
2023/12/20 07:39:26;;;;;;;87.60;42.40;;;;;;;;;;4402405;32;317757;-73
2023/12/20 07:41:52;;;;;;;97.97;47.27;;;;;;;;;;4412266;32;318126;-73
2023/12/20 07:44:19;;;;;;;92.47;45.57;;;;;;;;;;4401038;32;317606;-72
2023/12/20 07:46:46;;;;;;;95.97;46.70;;;;;;;;;;4410834;32;317816;-74
2023/12/20 07:49:14;;;;;;;86.63;45.90;;;;;;;;;;4401750;32;318435;-72
2023/12/20 07:51:41;;;;;;;100.50;48.70;;;;;;;;;;4410381;32;346611;-74
2023/12/20 07:54:08;;;;;;;102.67;53.87;;;;;;;;;;4412213;32;318636;-75
2023/12/20 07:56:35;;;;;;;104.90;52.13;;;;;;;;;;4399278;32;319478;-74
2023/12/20 07:59:01;;;;;;;116.30;63.60;;;;;;;;;;4412109;32;318796;-74
2023/12/20 08:01:28;;;;;;;93.77;47.40;;;;;;;;;;4401005;32;319352;-74
2023/12/20 08:03:55;;;;;;;89.80;47.80;;;;;;;;;;4410877;32;318416;-74
2023/12/20 08:06:23;;;;;;;99.73;51.90;;;;;;;;;;4398513;32;318371;-71
2023/12/20 08:08:50;;;;;;;107.40;56.43;;;;;;;;;;4411302;32;317634;-73
2023/12/20 08:11:17;;;;;;;121.57;58.60;;;;;;;;;;4400840;32;318883;-74
2023/12/20 08:13:44;;;;;;;121.10;58.77;;;;;;;;;;4411746;32;318826;-73
2023/12/20 08:16:13;;;;;;;126.43;65.43;;;;;;;;;;4411991;32;319689;-72
2023/12/20 08:18:40;;;;;;;149.23;71.97;;;;;;;;;;4396860;32;419123;-73
2023/12/20 08:21:07;;;;;;;152.87;73.60;;;;;;;;;;4411883;32;319491;-73
2023/12/20 08:23:35;;;;;;;172.70;83.37;;;;;;;;;;4400786;32;319064;-74
2023/12/20 08:26:05;;;;;;;199.87;103.50;;;;;;;;;;4411446;32;319478;-72
2023/12/20 08:28:32;;;;;;;154.07;77.40;;;;;;;;;;4397818;32;319805;-74
2023/12/20 08:30:59;;;;;;;141.77;71.30;;;;;;;;;;4412070;32;318985;-74
2023/12/20 08:33:26;;;;;;;157.83;69.07;;;;;;;;;;4402718;32;320032;-73
2023/12/20 08:35:53;;;;;;;142.20;69.23;;;;;;;;;;4412487;32;319390;-73
2023/12/20 08:38:20;;;;;;;157.43;79.07;;;;;;;;;;4402448;32;319456;-73
2023/12/20 08:40:48;;;;;;;151.20;78.43;;;;;;;;;;4410840;32;319657;-72
2023/12/20 08:43:15;;;;;;;131.27;61.87;;;;;;;;;;4402054;32;319353;-73
2023/12/20 08:45:42;;;;;;;156.70;74.83;;;;;;;;;;4412055;32;319517;-72
2023/12/20 08:48:08;;;;;;;149.70;74.70;;;;;;;;;;4411657;32;318826;-72
2023/12/20 08:50:36;;;;;;;140.10;69.07;;;;;;;;;;4398864;32;319511;-72
2023/12/20 08:53:03;;;;;;;133.23;69.40;;;;;;;;;;4411981;32;318892;-72
2023/12/20 08:55:30;;;;;;;128.13;68.17;;;;;;;;;;4403796;32;318896;-72
2023/12/20 08:57:59;;;;;;;129.70;65.67;;;;;;;;;;4413617;32;319482;-73
2023/12/20 09:00:27;;;;;;;119.20;63.00;;;;;;;;;;4401344;32;320266;-72
2023/12/20 09:02:54;;;;;;;122.43;65.33;;;;;;;;;;4414920;32;319465;-72
2023/12/20 09:05:21;;;;;;;140.50;70.57;;;;;;;;;;4404080;32;319497;-72
2023/12/20 09:07:48;;;;;;;134.70;70.73;;;;;;;;;;4414976;32;319397;-71
2023/12/20 09:10:15;;;;;;;126.90;69.63;;;;;;;;;;4404942;32;319593;-72
2023/12/20 09:12:42;;;;;;;142.83;77.97;;;;;;;;;;4410759;32;319858;-70
2023/12/20 09:15:10;;;;;;;153.30;78.40;;;;;;;;;;4414800;32;318924;-71
2023/12/20 09:17:37;;;;;;;127.23;66.83;;;;;;;;;;4400380;32;420179;-70
2023/12/20 09:20:06;;;;;;;112.57;59.90;;;;;;;;;;4413186;32;319502;-71
2023/12/20 09:22:38;;;;;;;101.63;54.37;;;;;;;;;;4401294;32;319524;-71
2023/12/20 09:25:05;;;;;;;96.13;50.97;;;;;;;;;;4413943;32;319530;-72
2023/12/20 09:27:32;;;;;;;86.37;46.23;;;;;;;;;;4404980;32;318603;-71
2023/12/20 09:29:59;;;;;;;84.27;45.50;;;;;;;;;;4414904;32;318668;-72
2023/12/20 09:32:27;;;;;;;91.90;47.83;;;;;;;;;;4403527;32;318149;-71
2023/12/20 09:34:57;;;;;;;85.17;43.90;;;;;;;;;;4413624;32;318670;-71
2023/12/20 09:37:27;;;;;;;87.80;46.07;;;;;;;;;;4403812;32;318467;-71
2023/12/20 09:39:53;;;;;;;86.30;46.83;;;;;;;;;;4413196;32;318654;-71
2023/12/20 09:42:29;;;;;;;88.43;45.90;;;;;;;;;;4402096;32;348150;-70
2023/12/20 09:45:00;;;;;;;82.60;44.23;;;;;;;;;;4412033;32;318606;-72
2023/12/20 09:47:28;;;;;;;81.20;46.10;;;;;;;;;;4403114;32;318396;-72
2023/12/20 09:49:55;;;;;;;88.07;48.03;;;;;;;;;;4413800;32;317603;-70
2023/12/20 09:52:25;;;;;;;89.53;47.13;;;;;;;;;;4402245;32;319211;-70
2023/12/20 09:54:54;;;;;;;95.03;53.30;;;;;;;;;;4412714;32;318489;-71
2023/12/20 09:57:21;;;;;;;95.53;55.83;;;;;;;;;;4402182;32;318322;-71
2023/12/20 09:59:48;;;;;;;89.70;50.53;;;;;;;;;;4412727;32;318623;-71
2023/12/20 10:02:16;;;;;;;94.30;52.80;;;;;;;;;;4401578;32;324765;-71
2023/12/20 10:04:48;;;;;;;107.63;58.07;;;;;;;;;;4411806;32;318555;-71
2023/12/20 10:07:16;;;;;;;109.27;57.10;;;;;;;;;;4402737;32;332800;-72
2023/12/20 10:09:43;;;;;;;118.03;58.10;;;;;;;;;;4414149;32;319480;-72
2023/12/20 10:12:10;;;;;;;115.93;57.77;;;;;;;;;;4412885;32;326118;-73
2023/12/20 10:14:39;;;;;;;109.17;59.37;;;;;;;;;;4397246;32;419916;-72
2023/12/20 10:17:06;;;;;;;115.17;58.47;;;;;;;;;;4413899;32;319686;-70
2023/12/20 10:19:34;;;;;;;116.83;59.67;;;;;;;;;;4401484;32;340734;-71
2023/12/20 10:22:05;;;;;;;113.83;60.97;;;;;;;;;;4414715;32;319568;-71
2023/12/20 10:24:32;;;;;;;121.33;67.13;;;;;;;;;;4401313;32;319380;-70
2023/12/20 10:27:06;;;;;;;125.33;64.93;;;;;;;;;;4413362;32;319453;-70
2023/12/20 10:29:35;;;;;;;126.30;64.00;;;;;;;;;;4403932;32;319800;-72
2023/12/20 10:32:22;;;;;;;107.17;58.20;;;;;;;;;;4412556;32;320480;-70
2023/12/20 10:34:49;;;;;;;117.03;61.20;;;;;;;;;;4399211;32;418202;-71
2023/12/20 10:37:21;;;;;;;119.17;63.87;;;;;;;;;;4401982;32;375328;-71
2023/12/20 10:39:51;;;;;;;118.23;66.23;;;;;;;;;;4412458;32;319538;-70
2023/12/20 10:42:21;;;;;;;133.53;69.33;;;;;;;;;;4401960;32;335166;-70
2023/12/20 10:44:48;;;;;;;118.90;67.13;;;;;;;;;;4413250;32;318699;-70
2023/12/20 10:47:16;;;;;;;125.23;69.33;;;;;;;;;;4402523;32;319594;-71
2023/12/20 10:49:43;;;;;;;134.63;70.03;;;;;;;;;;4413425;32;319667;-71
2023/12/20 10:52:11;;;;;;;117.77;65.50;;;;;;;;;;4412149;32;319092;-71
2023/12/20 10:54:40;;;;;;;126.33;70.10;;;;;;;;;;4398757;32;418515;-70
2023/12/20 10:57:07;;;;;;;139.67;74.70;;;;;;;;;;4412447;32;319585;-71
2023/12/20 10:59:37;;;;;;;133.37;75.03;;;;;;;;;;4403950;32;319360;-70
2023/12/20 11:02:05;;;;;;;147.60;76.73;;;;;;;;;;4411979;32;319627;-71
2023/12/20 11:04:40;;;;;;;155.17;80.40;;;;;;;;;;4403447;32;319496;-71
2023/12/20 11:07:17;;;;;;;174.80;81.37;;;;;;;;;;4412059;32;319658;-71
2023/12/20 11:09:55;;;;;;;159.03;84.57;;;;;;;;;;4399987;32;418916;-71
2023/12/20 11:12:33;;;;;;;170.00;87.73;;;;;;;;;;4402661;32;319503;-71
2023/12/20 11:15:04;;;;;;;173.33;87.33;;;;;;;;;;4411043;32;319410;-70
2023/12/20 11:17:32;;;;;;;183.10;92.07;;;;;;;;;;4400120;32;319394;-71
2023/12/20 11:20:10;;;;;;;174.73;88.70;;;;;;;;;;4412748;32;319261;-71
2023/12/20 11:22:41;;;;;;;187.90;91.07;;;;;;;;;;4397616;32;418211;-71
2023/12/20 11:25:11;;;;;;;187.20;93.70;;;;;;;;;;4412842;32;319413;-71
2023/12/20 11:27:45;;;;;;;182.87;95.00;;;;;;;;;;4398745;32;418646;-71
2023/12/20 11:30:15;;;;;;;194.37;92.77;;;;;;;;;;4402844;32;319526;-71
2023/12/20 11:32:42;;;;;;;180.90;93.43;;;;;;;;;;4408383;32;319319;-70
2023/12/20 11:35:20;;;;;;;189.60;92.90;;;;;;;;;;4410950;32;318671;-72
2023/12/20 11:37:48;;;;;;;166.70;91.73;;;;;;;;;;4393990;32;419311;-72
2023/12/20 11:40:17;;;;;;;173.50;88.87;;;;;;;;;;4401593;32;319494;-70
2023/12/20 11:42:45;;;;;;;194.00;92.60;;;;;;;;;;4410622;32;318557;-71
2023/12/20 11:45:15;;;;;;;185.30;92.97;;;;;;;;;;4399127;32;319401;-71
2023/12/20 11:47:45;;;;;;;210.20;104.33;;;;;;;;;;4416634;32;319133;-71
2023/12/20 11:50:12;;;;;;;207.03;104.20;;;;;;;;;;4410242;32;320499;-71
2023/12/20 11:52:39;;;;;;;200.80;100.70;;;;;;;;;;4404570;32;319678;-71
2023/12/20 11:55:07;;;;;;;197.47;95.73;;;;;;;;;;4420493;32;320309;-72
2023/12/20 11:57:36;;;;;;;199.67;99.00;;;;;;;;;;4400533;32;319163;-72
2023/12/20 12:00:04;;;;;;;191.23;99.33;;;;;;;;;;4412646;32;319626;-71
2023/12/20 12:02:31;;;;;;;207.00;101.60;;;;;;;;;;4398526;32;351264;-72
2023/12/20 12:04:59;;;;;;;210.67;102.67;;;;;;;;;;4411380;32;320471;-72
2023/12/20 12:07:26;;;;;;;205.03;103.80;;;;;;;;;;4401011;32;319663;-72
2023/12/20 12:09:53;;;;;;;205.83;101.40;;;;;;;;;;4412939;32;320420;-72
2023/12/20 12:12:20;;;;;;;212.63;105.70;;;;;;;;;;4401338;32;320780;-71
2023/12/20 12:14:49;;;;;;;218.83;106.53;;;;;;;;;;4410077;32;319790;-72
2023/12/20 12:17:16;;;;;;;202.63;104.77;;;;;;;;;;4401214;32;319954;-73
2023/12/20 12:19:44;;;;;;;199.20;106.03;;;;;;;;;;4411883;32;320457;-72
2023/12/20 12:22:13;;;;;;;211.73;109.50;;;;;;;;;;4411554;32;320500;-72
2023/12/20 12:24:40;;;;;;;207.90;105.50;;;;;;;;;;4397396;32;421131;-71
2023/12/20 12:27:08;;;;;;;200.17;101.03;;;;;;;;;;4411801;32;320578;-70
2023/12/20 12:29:35;;;;;;;213.73;106.37;;;;;;;;;;4400235;32;320685;-72
2023/12/20 12:32:06;;;;;;;222.40;109.20;;;;;;;;;;4415163;32;321167;-71
2023/12/20 12:34:33;;;;;;;240.87;112.60;;;;;;;;;;4402928;32;320449;-74
2023/12/20 12:37:01;;;;;;;243.30;118.43;;;;;;;;;;4414660;32;322136;-72
2023/12/20 12:39:29;;;;;;;261.17;127.30;;;;;;;;;;4402732;32;319720;-73
2023/12/20 12:41:56;;;;;;;254.67;124.23;;;;;;;;;;4413004;32;320038;-72
2023/12/20 12:44:24;;;;;;;253.87;117.17;;;;;;;;;;4399914;32;320230;-70
2023/12/20 12:46:53;;;;;;;238.83;114.90;;;;;;;;;;4413427;32;344709;-72
2023/12/20 12:49:21;;;;;;;245.00;110.07;;;;;;;;;;4402754;32;320426;-71
2023/12/20 12:51:48;;;;;;;294.37;143.33;;;;;;;;;;4414963;32;320278;-73
2023/12/20 12:54:17;;;;;;;248.50;117.97;;;;;;;;;;4402457;32;388303;-73
2023/12/20 12:56:46;;;;;;;243.07;117.17;;;;;;;;;;4413392;32;320381;-71
2023/12/20 12:59:13;;;;;;;243.00;117.20;;;;;;;;;;4404247;32;327815;-72
2023/12/20 13:01:40;;;;;;;454.23;210.87;;;;;;;;;;4414867;32;320487;-74
2023/12/20 13:04:10;;;;;;;339.93;158.20;;;;;;;;;;4415244;32;320717;-72
2023/12/20 13:06:38;;;;;;;274.53;133.20;;;;;;;;;;4399542;32;419578;-72
2023/12/20 13:09:05;;;;;;;262.20;130.20;;;;;;;;;;4414498;32;319873;-73
2023/12/20 13:11:33;;;;;;;262.47;126.83;;;;;;;;;;4403773;32;339286;-72
2023/12/20 13:14:00;;;;;;;254.77;127.83;;;;;;;;;;4413025;32;320482;-74
2023/12/20 13:16:27;;;;;;;271.73;133.13;;;;;;;;;;4400451;32;320382;-71
2023/12/20 13:18:53;;;;;;;261.23;127.87;;;;;;;;;;4413567;32;320265;-71
2023/12/20 13:21:20;;;;;;;254.77;124.53;;;;;;;;;;4404451;32;320475;-71
2023/12/20 13:23:48;;;;;;;263.20;133.23;;;;;;;;;;4414329;32;320530;-71
2023/12/20 13:26:15;;;;;;;271.17;133.47;;;;;;;;;;4403807;32;320324;-72
2023/12/20 13:28:42;;;;;;;256.47;127.10;;;;;;;;;;4412127;32;320250;-72
2023/12/20 13:31:09;;;;;;;276.07;136.67;;;;;;;;;;4414176;32;320399;-72
2023/12/20 13:33:37;;;;;;;276.17;130.77;;;;;;;;;;4404335;32;320414;-71
2023/12/20 13:36:05;;;;;;;273.57;131.00;;;;;;;;;;4413693;32;319702;-72
2023/12/20 13:38:32;;;;;;;274.40;130.33;;;;;;;;;;4401194;32;319836;-72
2023/12/20 13:41:00;;;;;;;274.20;129.10;;;;;;;;;;4414066;32;320486;-71
2023/12/20 13:43:28;;;;;;;241.33;124.23;;;;;;;;;;4404270;32;320444;-73
2023/12/20 13:45:54;;;;;;;261.80;122.27;;;;;;;;;;4412859;32;320842;-70
2023/12/20 13:48:21;;;;;;;243.43;123.60;;;;;;;;;;4403581;32;320373;-71
2023/12/20 13:50:48;;;;;;;244.27;118.93;;;;;;;;;;4412035;32;320461;-72
2023/12/20 13:53:15;;;;;;;236.80;114.23;;;;;;;;;;4403557;32;320711;-72
2023/12/20 13:55:42;;;;;;;243.20;114.77;;;;;;;;;;4413077;32;320529;-70
2023/12/20 13:58:11;;;;;;;234.60;115.27;;;;;;;;;;4413556;32;319735;-72